Terminal Aerodrome Forecast
Issued by NWS

Home | Current Version | Previous Version | Text Only | Print | Product List | Glossary On
Versions: 1 2 3 4 5 6 7 8 9 10 11 12 13 14 15 16 17 18 19 20 21 22 23
000
FTUS46 KLOX 301739
TAFOXR
TAF
KOXR 301739Z 3018/3118 14005KT 5SM HZ BKN007
     FM301900 25007KT 6SM HZ BKN010
     FM302200 27010KT P6SM SCT012
     FM310300 VRB03KT P6SM BKN008
     FM310900 VRB03KT 4SM BR OVC004
     FM311600 VRB03KT 5SM HZ OVC007=

USA.gov is the U.S. government's official web portal to all federal, state and local government web resources and services.